Durango, CO

5:21 PM MDT on September 20, 2014 (GMT -0600)
Every Green Valley | Change Station
CLOSE
Current Station
Personal Weather Station
Location: Durango, CO
Elevation: 6821 ft
Nearby Weather Stations
Active Advisory: Special Statement

Elev 6821 ft 37.28 °N, 107.90 °W | Updated 20 seconds ago

Partly Cloudy
Partly Cloudy
80.4 °F
Feels Like 79 °F
N
0.0
Wind Variable Wind from NE
Gusts 0.0 mph

Today
High -- | Low -- °F
--% Chance of Precip.
Yesterday
High -- | Low -- °F
Precip. -- in
6:57 AM 7:11 PM
Waning Crescent, 10% visible
Pressure 29.91 in
Visibility 10.0 miles
Clouds Clear
Heat Index 79 °F
Dew Point 29 °F
Humidity 15%
Rainfall -999.00 in
Snow Depth 0 in , 87 in , 10 in
UV 3 out of 12
Pollen 6.30 out of 12
Air Quality Not available.
Flu Activity Not available.
METAR KDRO 202253Z AUTO 28003KT 10SM CLR 28/02 A3016 RMK AO2 SLP127 T02780017 $

More Conditions Fewer Conditions

Pressure 29.91 in
Visibility 10.0 miles
Clouds Clear
Heat Index 79 °F
Dew Point 29 °F
Humidity 15%
Rainfall -999.00 in
Snow Depth 0 in , 87 in , 10 in
UV 3 out of 12
Pollen 6.30 out of 12
Air Quality Not available.
Flu Activity Not available.
METAR KDRO 202253Z AUTO 28003KT 10SM CLR 28/02 A3016 RMK AO2 SLP127 T02780017 $

More Conditions Fewer Conditions

10-Day Weather Forecast

Almanac

Astronomy

Sep. 20, 2014 Rise Set
Actual Time 6:57 AM MDT 7:11 PM MDT
Civil Twilight 6:31 AM MDT 7:37 PM MDT
Nautical Twilight 6:00 AM MDT 8:07 PM MDT
Astronomical Twilight 5:29 AM MDT 8:38 PM MDT
Moon 3:42 AM MDT 5:13 PM MDT
Length of Visible Light 13h 05m
Length of Day
12h 13m
Tomorrow will be 2m 21s shorter.
Waning Crescent, 10% of the Moon is Illuminated
Today
Waning Crescent
Sep 24
New
Oct 1
First Quarter
Oct 8
Full
Oct 15
Last Quarter

Today's Extremes

State Highs State Lows

Community

WunderPhotos

Upload Photos

1,754,978 photos uploaded!

WunderBlogs® & News

Nearby

Snow Depth

Station Depth Elevation
Loveland Basin 0 in 11400 ft
Vail Mountain 87 in 10300 ft
Mccoy Park 10 in 9480 ft
Willow Creek Pass 0 in 9540 ft
Rough And Tumble 0 in 10360 ft

Earthquake Activity

City Distance Mag. Time & Date
No recent earthquake activity has been reported nearby.
Minimum magnitude displayed is 2.5.

Coastal Water Temperatures

Place Temperature
No Stations Reporting

Nearby Weather Stations